NCAR-RAP Real-Time Weather Data

Output produced by METARs form (14 October 2019  23:19 UTC)
found at http://weather.rap.ucar.edu/surface/
 
KMSN 142253Z 20008KT 10SM FEW250 10/M01 A3001 RMK AO2 SLP168 T01001011
KMSN 142153Z VRB06KT 10SM BKN250 11/M01 A3000 RMK AO2 SLP166 T01061011
KMSN 142053Z 27005KT 10SM BKN250 11/M01 A3002 RMK AO2 SLP170 T01061006 56014
KMSN 141953Z VRB05KT 10SM SCT250 10/M01 A3002 RMK AO2 SLP173 T01001011
KMSN 141853Z VRB03KT 10SM SCT250 09/M02 A3004 RMK AO2 SLP177 T00941017
KMSN 141753Z 24008KT 10SM FEW040 SCT250 08/M02 A3006 RMK AO2 SLP184 T00831022 10089 20006 50000
KMSN 141653Z 30009KT 10SM SCT032 08/M02 A3006 RMK AO2 SLP186 T00781022
KMSN 141553Z 30009KT 10SM FEW025 SCT100 07/M01 A3006 RMK AO2 SLP186 T00671006
KMSN 141453Z VRB05KT 10SM FEW018 SCT095 BKN250 05/00 A3006 RMK AO2 SLP185 T00500000 51016
KMSN 141353Z 29008KT 10SM FEW012 BKN100 03/00 A3005 RMK AO2 SLP183 T00280000
KMSN 141253Z 28006KT 10SM FEW010 FEW130 01/M01 A3003 RMK AO2 SLP176 T00111006
KMSN 141153Z 29004KT 10SM FEW130 01/M01 A3001 RMK AO2 SLP170 T00061011 10022 20006 53018
KMSN 141053Z 29005KT 10SM CLR 01/M01 A2999 RMK AO2 SLP163 T00061011
KMSN 140953Z AUTO 29004KT 10SM CLR 01/M01 A2997 RMK AO2 SLP155 T00111011
KMSN 140853Z AUTO VRB04KT 10SM CLR 01/M01 A2996 RMK AO2 SLP151 T00111011 51008
KMSN 140753Z AUTO 27005KT 10SM CLR 02/M01 A2996 RMK AO2 SLP151 T00171011
KMSN 140653Z AUTO 29005KT 10SM CLR 02/M01 A2995 RMK AO2 SLP149 T00221011
KMSN 140553Z AUTO 00000KT 10SM CLR 02/M01 A2993 RMK AO2 SLP143 T00221011 10050 20022 400500022 51005
KMSN 140453Z AUTO VRB04KT 10SM CLR 03/M01 A2993 RMK AO2 SLP142 T00281011
KMSN 140353Z VRB04KT 10SM FEW060 03/M01 A2992 RMK AO2 SLP140 LAST T00331011
KMSN 140253Z VRB05KT 10SM FEW060 04/M01 A2992 RMK AO2 SLP138 T00391006 51013
KMSN 140153Z VRB05KT 10SM FEW020 BKN055 05/M01 A2991 RMK AO2 SLP136 T00501006
KMSN 140053Z 28006KT 10SM FEW020 OVC050 05/00 A2990 RMK AO2 SLP131 T00500000
KMSN 132353Z 25007G15KT 220V290 10SM BKN040 OVC250 05/M01 A2988 RMK AO2 SLP124 T00501006 10050 20044 51018
KMSN 132253Z VRB04KT 10SM BKN033 OVC042 05/M01 A2986 RMK AO2 SLP119 T00501006
KMSN 132200Z 24007KT 210V280 10SM SCT027 OVC039 05/M01 A2985 RMK AO2 T00501006
KMSN 132153Z 28007KT 10SM BKN029 OVC037 05/M01 A2984 RMK AO2 SLP113 T00501006
KMSN 132053Z VRB03KT 10SM BKN028 BKN035 OVC250 05/M01 A2982 RMK AO2 SLP106 T00501006 51010
KMSN 131953Z 28007KT 240V310 10SM BKN026 BKN032 OVC041 05/M01 A2981 RMK AO2 SLP103 T00501006
KMSN 131945Z 29007KT 10SM BKN030 OVC042 05/M01 A2981 RMK AO2 T00501006
KMSN 131853Z 25011G19KT 10SM BKN028 OVC035 04/M01 A2981 RMK AO2 SLP101 T00441011
KMSN 131753Z VRB06KT 10SM BKN029 OVC080 04/M01 A2979 RMK AO2 SLP095 CIG 026V035 T00441011 10044 20028 50003
KMSN 131653Z 25006KT 10SM BKN024 OVC080 04/M01 A2979 RMK AO2 SLP096 CIG 022V031 T00391011
KMSN 131553Z 26007G17KT 210V280 10SM BKN024 BKN034 OVC090 04/M01 A2980 RMK AO2 SLP098 T00391011
KMSN 131544Z 27010G17KT 10SM BKN023 BKN039 OVC095 04/M01 A2980 RMK AO2 T00391011
KMSN 131528Z 25007G14KT 10SM SCT022 BKN038 OVC100 03/M01 A2980 RMK AO2 T00331011
KMSN 131453Z 25012G20KT 10SM BKN020 BKN029 OVC100 03/M01 A2978 RMK AO2 SLP092 T00331011 51006
KMSN 131408Z 26009G17KT 10SM SCT020 OVC038 03/M01 A2978 RMK AO2 T00331006
KMSN 131353Z 25009G20KT 220V280 10SM BKN017 BKN023 OVC030 03/M01 A2978 RMK AO2 SLP091 T00281011
KMSN 131253Z 26008KT 10SM BKN017 BKN022 OVC033 03/M01 A2977 RMK AO2 SLP087 T00281006
KMSN 131153Z 24008KT 210V290 10SM BKN015 BKN022 OVC033 03/00 A2976 RMK AO2 SLP086 CIG 013V019 60003 70004 I6000 T00280000 10033 20022 53002
KMSN 131053Z VRB05G15KT 10SM BKN015 OVC026 03/00 A2976 RMK AO2 SLP084 CIG 013V019 T00280000
KMSN 130953Z AUTO 23009G16KT 210V270 10SM BKN015 OVC021 03/00 A2975 RMK AO2 SLP081 T00280000
KMSN 130910Z AUTO VRB05KT 10SM SCT018 OVC029 02/00 A2976 RMK AO2 T00220000
KMSN 130853Z AUTO VRB03KT 10SM SCT018 OVC030 03/00 A2976 RMK AO2 RAE06 SLP081 P0000 60003 I3000 T00280000 50002
KMSN 130826Z AUTO 26007G19KT 220V290 10SM FEW012 BKN030 OVC065 02/00 A2976 RMK AO2 RAE06 P0000 T00220000
KMSN 130815Z AUTO 24008G18KT 220V290 10SM SCT012 BKN018 OVC070 02/00 A2976 RMK AO2 RAE06 P0000 T00220000
KMSN 130753Z AUTO 25008KT 220V290 10SM -RA BKN012 OVC032 02/01 A2976 RMK AO2 RAE40B44UPB28E44 SLP082 P0002 T00220006
KMSN 130743Z AUTO VRB05G20KT 10SM UP BKN015 OVC034 02/01 A2976 RMK AO2 RAE40UPB28 P0002 T00220006
KMSN 130702Z AUTO VRB05KT 9SM -RA BKN014 OVC019 03/01 A2976 RMK AO2 P0001 T00280011
KMSN 130653Z AUTO 24007G21KT 190V290 9SM -RA BKN016 OVC024 03/01 A2975 RMK AO2 SLP080 P0001 T00280006
KMSN 130553Z AUTO 23013G23KT 170V250 10SM -RA SCT016 BKN023 OVC040 03/00 A2975 RMK AO2 RAB29 SLP079 P0000 60000 T00330000 10033 20028 400940006 58009
KMSN 130501Z AUTO 24009G20KT 10SM SCT018 BKN024 OVC055 03/00 A2976 RMK AO2 T00330000
KMSN 130453Z AUTO 25007G21KT 220V280 10SM FEW015 SCT020 OVC055 03/00 A2976 RMK AO2 SLP082 T00330000
KMSN 130353Z VRB05KT 10SM SCT017 OVC085 03/01 A2977 RMK AO2 RAE0255 SLP089 LAST P0000 T00280006
KMSN 130253Z VRB06KT 10SM -RA FEW018 BKN050 OVC070 03/01 A2978 RMK AO2 SLP091 RAE00B21 P0000 60000 T00330006 58005
KMSN 130240Z 27008G17KT 230V320 10SM -RA FEW016 BKN022 OVC070 03/01 A2978 RMK AO2 RAE00B21 P0000 T00280006
KMSN 130153Z 30009G22KT 250V320 10SM -RA FEW015 SCT055 OVC080 03/01 A2978 RMK AO2 SLP092 P0000 T00280006
KMSN 130053Z 28010G21KT 230V310 10SM -RA FEW017 BKN055 OVC070 03/01 A2979 RMK AO2 PK WND 31028/0016 SLP097 P0000 T00280006
KMSN 122353Z 29010G30KT 240V320 10SM -RA FEW019 OVC055 03/01 A2979 RMK AO2 PK WND 26030/2350 SLP097 P0001 60001 T00330006 10094 20028 50020